Etusivu
METAR-TAF:

METAR-TAF

Lentoasemat :

Hagåtña, Guam, Yhdysvallat

Antonio B. Won Patin kansainvälinen lentoasema

Leveyspiiri: 13-29N, Pituuspiiri: 144-48E, korkeus merenpinnasta: 91 m

Tämänhetkinen sää

Tämä raportti tehtiin 43 minuuttia sitten, kello 09.54 UTC
Tuuli 4 kn idästä
Lämpötila 28°C
Kosteus 79%
Ilmanpaine 1012 hPa
Näkyvyys: 16.1 km
selkeää

METAR: PGUM 230954Z 09004KT 10SM CLR 28/24 A2989 RMK AO2 SLP115 T02780244 $

Aika: 20:37 (10:37 UTC)

Sääennuste

Tämä raportti tehtiin 5 tuntia ja 10 minuuttia sitten, kello 05.27 UTC
Ennuste voimassa 23. päivästä klo 06 UTC - 24. päivään klo 12 UTC
Tuuli 12 kn idästä
Näkyvyys: 10 km
Muutamia pilviä 2500 ft:n korkeudessa
Hajanaisia pilviä 5000 ft:n korkeudessa
From 23. päivästä klo 0800 UTC
Tuuli 8 kn idästä
Näkyvyys: 10 km
Muutamia pilviä 2500 ft:n korkeudessa
Muutamia pilviä 5000 ft:n korkeudessa

TAF: PGUM 230527Z 2306/2412 09012KT P6SM FEW025 SCT050 FM230800 09008KT P6SM FEW025 FEW050

Säähavainnot ja -ennusteet yli 4000 lentoasemalta (METAR- ja TAF-raportit).

Käytössä olevat sääasemat on merkitty karttaan keltaisilla ja punaisilla pisteillä.

Aseta hiiri pisteen päälle nähdäksesi sääaseman nimen.

Klikkaa sitten nähdäksesi säähavainnot ja -ennusteet.

Kartan vaihtaminen: klikkaa mustalla rastilla varustettuja vihreitä pisteitä, niin voit zoomata sisään; viivalla varustettua vihreää pistettä, niin voit zoomata ulos tai vihreitä nuolia, niin pääset viereisille kartoille.


METAR-TAF: